Time;durP1;ratioP1;P1;durP2;ratioP2;P2;SDS_P1;SDS_P2;PMS_P1;PMS_P2;Temp;Humidity;BMP_temperature;BMP_pressure;BME280_temperature;BME280_humidity;BME280_pressure;Samples;Min_cycle;Max_cycle;Signal;HPM_P1;HPM_P2
2022/06/21 00:01:00;;;;;;;4.85;3.13;;;;;;;;;;5052638;28;20084;-40
2022/06/21 00:03:26;;;;;;;5.57;3.53;;;;;;;;;;5052385;28;20415;-40
2022/06/21 00:05:52;;;;;;;3.13;2.80;;;;;;;;;;5052691;28;20029;-40
2022/06/21 00:08:19;;;;;;;7.80;3.03;;;;;;;;;;5052412;28;20021;-40
2022/06/21 00:10:45;;;;;;;3.40;3.10;;;;;;;;;;5052372;28;20029;-41
2022/06/21 00:13:12;;;;;;;3.08;2.78;;;;;;;;;;5052536;28;20047;-40
2022/06/21 00:15:38;;;;;;;4.32;3.60;;;;;;;;;;5052058;28;20053;-39
2022/06/21 00:18:04;;;;;;;4.20;3.05;;;;;;;;;;5052127;28;20056;-42
2022/06/21 00:20:30;;;;;;;4.90;3.05;;;;;;;;;;5050746;28;20191;-40
2022/06/21 00:22:55;;;;;;;6.18;2.88;;;;;;;;;;5052032;28;20387;-40
2022/06/21 00:25:23;;;;;;;3.50;2.75;;;;;;;;;;5051982;28;20067;-40
2022/06/21 00:27:49;;;;;;;4.63;3.28;;;;;;;;;;5052224;28;20021;-40
2022/06/21 00:30:16;;;;;;;3.55;3.15;;;;;;;;;;5051823;28;20032;-40
2022/06/21 00:32:41;;;;;;;4.80;3.22;;;;;;;;;;5051497;28;20032;-40
2022/06/21 00:35:11;;;;;;;6.50;3.50;;;;;;;;;;5052225;28;20029;-40
2022/06/21 00:37:37;;;;;;;4.88;3.30;;;;;;;;;;5051665;28;20479;-41
2022/06/21 00:40:09;;;;;;;3.63;3.30;;;;;;;;;;5051729;28;20521;-40
2022/06/21 00:42:36;;;;;;;3.58;2.97;;;;;;;;;;5050408;28;20029;-40
2022/06/21 00:45:02;;;;;;;3.78;3.38;;;;;;;;;;5051722;28;20028;-40
2022/06/21 00:47:30;;;;;;;4.20;3.53;;;;;;;;;;5051867;28;20029;-40
2022/06/21 00:50:01;;;;;;;5.80;3.25;;;;;;;;;;5051553;28;20074;-40
2022/06/21 00:52:47;;;;;;;4.25;3.30;;;;;;;;;;5051525;28;20479;-40
2022/06/21 00:55:15;;;;;;;5.97;3.30;;;;;;;;;;5050314;28;20029;-40
2022/06/21 00:57:50;;;;;;;4.10;3.53;;;;;;;;;;5051801;28;20033;-39
2022/06/21 01:00:24;;;;;;;4.70;3.63;;;;;;;;;;5050261;28;20051;-40
2022/06/21 01:02:50;;;;;;;4.97;3.00;;;;;;;;;;5050277;28;20035;-40
2022/06/21 01:05:15;;;;;;;4.57;4.13;;;;;;;;;;5051583;28;20021;-40
2022/06/21 01:07:41;;;;;;;11.95;3.92;;;;;;;;;;5051405;28;20021;-40
2022/06/21 01:10:13;;;;;;;4.53;3.13;;;;;;;;;;5051280;28;20013;-40
2022/06/21 01:12:58;;;;;;;4.07;3.67;;;;;;;;;;5051194;28;20068;-40
2022/06/21 01:15:30;;;;;;;4.22;3.38;;;;;;;;;;5050783;28;20048;-40
2022/06/21 01:17:57;;;;;;;5.82;3.70;;;;;;;;;;5051275;28;20029;-40
2022/06/21 01:20:23;;;;;;;6.47;3.17;;;;;;;;;;5051326;28;20043;-40
2022/06/21 01:23:02;;;;;;;4.60;3.65;;;;;;;;;;5051524;28;20077;-40
2022/06/21 01:25:27;;;;;;;10.73;3.65;;;;;;;;;;5051351;28;20103;-40
2022/06/21 01:27:55;;;;;;;3.83;3.45;;;;;;;;;;5051061;28;20099;-40
2022/06/21 01:30:26;;;;;;;5.60;3.97;;;;;;;;;;5051072;28;20057;-40
2022/06/21 01:32:52;;;;;;;5.05;4.30;;;;;;;;;;5051122;28;20029;-40
2022/06/21 01:35:35;;;;;;;4.50;3.33;;;;;;;;;;5051349;28;20036;-40
2022/06/21 01:38:03;;;;;;;10.10;3.50;;;;;;;;;;5051071;28;20041;-40
2022/06/21 01:40:31;;;;;;;5.82;3.40;;;;;;;;;;5049674;28;20529;-40
2022/06/21 01:43:01;;;;;;;6.45;4.22;;;;;;;;;;5052566;28;20427;-40
2022/06/21 01:45:28;;;;;;;5.60;3.88;;;;;;;;;;5055357;28;20402;-40
2022/06/21 01:47:58;;;;;;;6.60;3.80;;;;;;;;;;5055188;28;20021;-40
2022/06/21 01:50:24;;;;;;;6.93;4.10;;;;;;;;;;5054947;28;20028;-40
2022/06/21 01:52:52;;;;;;;3.47;3.17;;;;;;;;;;5054850;28;20021;-42
2022/06/21 01:55:35;;;;;;;3.92;3.00;;;;;;;;;;5054818;28;20036;-40
2022/06/21 01:58:01;;;;;;;5.88;3.90;;;;;;;;;;5054753;28;20044;-40
2022/06/21 02:00:28;;;;;;;8.02;3.58;;;;;;;;;;5054648;28;20111;-40
2022/06/21 02:02:59;;;;;;;4.30;3.55;;;;;;;;;;5054663;28;20068;-40
2022/06/21 02:05:29;;;;;;;17.52;4.40;;;;;;;;;;5054700;28;20036;-40
2022/06/21 02:07:56;;;;;;;9.68;3.58;;;;;;;;;;5054913;28;20028;-39
2022/06/21 02:10:24;;;;;;;5.68;3.95;;;;;;;;;;5054661;28;20077;-40
2022/06/21 02:12:53;;;;;;;3.05;2.83;;;;;;;;;;5054666;28;20463;-40
2022/06/21 02:15:23;;;;;;;8.80;3.47;;;;;;;;;;5054505;28;20394;-40
2022/06/21 02:17:48;;;;;;;3.50;3.17;;;;;;;;;;5054290;28;20069;-40
2022/06/21 02:20:19;;;;;;;3.88;3.50;;;;;;;;;;5054593;28;20087;-40
2022/06/21 02:22:45;;;;;;;4.50;4.03;;;;;;;;;;5054638;28;20032;-40
2022/06/21 02:25:16;;;;;;;8.23;4.53;;;;;;;;;;5054303;28;20037;-40
2022/06/21 02:27:41;;;;;;;6.40;3.97;;;;;;;;;;5054259;28;20025;-40
2022/06/21 02:30:11;;;;;;;7.78;3.63;;;;;;;;;;5054307;28;20463;-40
2022/06/21 02:32:38;;;;;;;6.55;3.83;;;;;;;;;;5054296;28;20684;-40
2022/06/21 02:35:06;;;;;;;4.57;3.47;;;;;;;;;;5054215;28;20035;-40
2022/06/21 02:37:32;;;;;;;4.22;3.28;;;;;;;;;;5053993;28;20040;-40
2022/06/21 02:39:58;;;;;;;7.07;3.58;;;;;;;;;;5054068;28;20429;-40
2022/06/21 02:42:27;;;;;;;7.18;4.05;;;;;;;;;;5054228;28;20386;-41
2022/06/21 02:44:55;;;;;;;4.00;3.58;;;;;;;;;;5054253;28;20378;-40
2022/06/21 02:47:23;;;;;;;5.13;3.63;;;;;;;;;;5054090;28;20044;-40
2022/06/21 02:50:09;;;;;;;4.25;3.85;;;;;;;;;;5053876;28;20104;-40
2022/06/21 02:52:38;;;;;;;4.85;3.60;;;;;;;;;;5053522;28;20094;-40
2022/06/21 02:55:26;;;;;;;4.05;3.55;;;;;;;;;;5053049;28;20033;-39
2022/06/21 02:57:55;;;;;;;5.07;3.75;;;;;;;;;;5053971;28;20043;-40
2022/06/21 03:00:21;;;;;;;6.18;4.03;;;;;;;;;;5053471;28;20033;-40
2022/06/21 03:02:46;;;;;;;5.38;3.75;;;;;;;;;;5053965;28;20032;-39
2022/06/21 03:05:15;;;;;;;4.82;3.17;;;;;;;;;;5053587;28;20017;-40
2022/06/21 03:07:42;;;;;;;4.03;3.72;;;;;;;;;;5053505;28;20487;-39
2022/06/21 03:10:14;;;;;;;7.13;3.72;;;;;;;;;;5052206;28;20458;-40
2022/06/21 03:12:39;;;;;;;5.47;3.60;;;;;;;;;;5053451;28;20028;-40
2022/06/21 03:15:08;;;;;;;6.40;3.72;;;;;;;;;;5053293;28;20568;-40
2022/06/21 03:17:39;;;;;;;7.47;3.40;;;;;;;;;;5053174;28;20471;-40
2022/06/21 03:20:09;;;;;;;5.28;4.35;;;;;;;;;;5053296;28;20134;-40
2022/06/21 03:22:35;;;;;;;3.80;3.45;;;;;;;;;;5053376;28;20024;-39
2022/06/21 03:25:04;;;;;;;5.68;3.97;;;;;;;;;;5053306;28;20048;-40
2022/06/21 03:27:34;;;;;;;4.57;3.47;;;;;;;;;;5052957;28;20066;-40
2022/06/21 03:30:00;;;;;;;4.80;4.25;;;;;;;;;;5053100;28;20475;-40
2022/06/21 03:32:26;;;;;;;4.18;3.78;;;;;;;;;;5052958;28;20017;-40
2022/06/21 03:34:53;;;;;;;3.40;3.10;;;;;;;;;;5053033;28;20112;-39
2022/06/21 03:37:19;;;;;;;4.72;4.30;;;;;;;;;;5051946;28;20075;-40
2022/06/21 03:42:31;;;;;;;4.30;3.33;;;;;;;;;;5053068;28;20040;-39
2022/06/21 03:45:00;;;;;;;4.40;3.63;;;;;;;;;;5052850;28;20067;-40
2022/06/21 03:47:28;;;;;;;6.78;3.67;;;;;;;;;;5052728;28;20029;-40
2022/06/21 03:50:03;;;;;;;3.55;3.25;;;;;;;;;;5052721;28;20460;-40
2022/06/21 03:52:49;;;;;;;4.88;3.75;;;;;;;;;;5052918;28;20029;-40
2022/06/21 03:55:33;;;;;;;4.72;3.67;;;;;;;;;;5052623;28;20059;-40
2022/06/21 03:58:04;;;;;;;4.95;3.67;;;;;;;;;;5052788;28;20123;-40
2022/06/21 04:00:32;;;;;;;4.40;4.00;;;;;;;;;;5051130;28;20045;-40
2022/06/21 04:03:01;;;;;;;4.85;4.32;;;;;;;;;;5051218;28;20383;-40
2022/06/21 04:05:33;;;;;;;5.90;3.58;;;;;;;;;;5051923;28;20581;-40
2022/06/21 04:07:59;;;;;;;5.00;3.40;;;;;;;;;;5052204;28;20064;-40
2022/06/21 04:10:24;;;;;;;4.60;3.35;;;;;;;;;;5052219;28;20056;-41
2022/06/21 04:13:02;;;;;;;4.05;3.75;;;;;;;;;;5052357;28;20073;-40
2022/06/21 04:15:27;;;;;;;4.85;3.83;;;;;;;;;;5051991;28;20049;-40
2022/06/21 04:17:55;;;;;;;4.45;3.75;;;;;;;;;;5052165;28;20116;-40
2022/06/21 04:20:31;;;;;;;3.83;3.42;;;;;;;;;;5051969;28;20490;-40
2022/06/21 04:22:57;;;;;;;9.13;5.18;;;;;;;;;;5052258;28;20082;-40
2022/06/21 04:25:35;;;;;;;4.20;3.80;;;;;;;;;;5052196;28;20025;-40
2022/06/21 04:28:17;;;;;;;6.40;4.30;;;;;;;;;;5052168;28;20542;-40
2022/06/21 04:30:48;;;;;;;4.30;3.63;;;;;;;;;;5052322;28;20171;-40
2022/06/21 04:33:43;;;;;;;4.10;3.58;;;;;;;;;;5050643;28;20483;-40
2022/06/21 04:36:16;;;;;;;4.78;4.03;;;;;;;;;;5051057;28;20044;-40
2022/06/21 04:38:57;;;;;;;4.05;3.63;;;;;;;;;;5051942;28;20025;-40
2022/06/21 04:41:27;;;;;;;5.07;3.50;;;;;;;;;;5051670;28;20045;-40
2022/06/21 04:43:57;;;;;;;6.07;3.83;;;;;;;;;;5051668;28;20037;-41
2022/06/21 04:46:25;;;;;;;4.20;3.42;;;;;;;;;;5051581;28;20033;-40
2022/06/21 04:48:54;;;;;;;6.78;4.20;;;;;;;;;;5051641;28;20512;-40
2022/06/21 04:51:58;;;;;;;6.32;3.72;;;;;;;;;;5051624;28;20021;-40
2022/06/21 04:54:27;;;;;;;5.47;3.90;;;;;;;;;;5049014;28;20040;-40
2022/06/21 04:56:58;;;;;;;5.97;3.80;;;;;;;;;;5049059;28;20072;-40
2022/06/21 04:59:28;;;;;;;3.50;3.20;;;;;;;;;;5050315;28;20239;-40
2022/06/21 05:01:54;;;;;;;3.33;3.03;;;;;;;;;;5051372;28;20091;-40
2022/06/21 05:04:25;;;;;;;4.50;3.92;;;;;;;;;;5051351;28;20021;-40
2022/06/21 05:06:51;;;;;;;8.30;4.28;;;;;;;;;;5051435;28;20047;-40
2022/06/21 05:09:19;;;;;;;5.35;3.70;;;;;;;;;;5051552;28;20783;-40
2022/06/21 05:11:45;;;;;;;6.97;5.28;;;;;;;;;;5051396;28;20522;-40
2022/06/21 05:14:17;;;;;;;5.20;4.70;;;;;;;;;;5050961;28;20037;-40
2022/06/21 05:16:43;;;;;;;5.85;4.75;;;;;;;;;;5051005;28;20529;-39
2022/06/21 05:19:19;;;;;;;4.72;3.45;;;;;;;;;;5051074;28;20026;-40
2022/06/21 05:21:47;;;;;;;6.65;3.83;;;;;;;;;;5051092;28;20476;-40
2022/06/21 05:24:13;;;;;;;8.27;3.78;;;;;;;;;;5051215;28;20028;-40
2022/06/21 05:26:42;;;;;;;4.82;3.80;;;;;;;;;;5051201;28;20033;-41
2022/06/21 05:29:12;;;;;;;4.22;3.80;;;;;;;;;;5051229;28;20115;-41
2022/06/21 05:31:40;;;;;;;5.35;4.47;;;;;;;;;;5051034;28;20048;-40
2022/06/21 05:34:22;;;;;;;4.47;3.88;;;;;;;;;;5051179;28;20029;-41
2022/06/21 05:37:00;;;;;;;8.40;4.40;;;;;;;;;;5050946;28;20032;-41
2022/06/21 05:39:30;;;;;;;6.72;4.18;;;;;;;;;;5051092;28;20091;-41
2022/06/21 05:41:58;;;;;;;7.45;4.57;;;;;;;;;;5050984;28;20152;-41
2022/06/21 05:44:25;;;;;;;5.25;4.75;;;;;;;;;;5050919;28;20013;-41
2022/06/21 05:46:55;;;;;;;7.97;4.85;;;;;;;;;;5050961;28;20040;-41
2022/06/21 05:49:22;;;;;;;5.13;4.32;;;;;;;;;;5051218;28;20017;-41
2022/06/21 05:51:48;;;;;;;7.90;4.13;;;;;;;;;;5050920;28;20052;-41
2022/06/21 05:54:15;;;;;;;7.22;4.47;;;;;;;;;;5050938;28;20017;-41
2022/06/21 05:56:41;;;;;;;5.40;4.68;;;;;;;;;;5050882;28;20444;-41
2022/06/21 05:59:08;;;;;;;4.20;3.80;;;;;;;;;;5051053;28;20025;-41
2022/06/21 06:01:33;;;;;;;5.25;4.53;;;;;;;;;;5050733;28;20040;-41
2022/06/21 06:04:05;;;;;;;4.80;4.40;;;;;;;;;;5050837;28;20017;-41
2022/06/21 06:06:34;;;;;;;8.02;4.57;;;;;;;;;;5050967;28;20431;-42
2022/06/21 06:09:05;;;;;;;6.22;4.80;;;;;;;;;;5050780;28;20013;-41
2022/06/21 06:12:00;;;;;;;4.85;4.25;;;;;;;;;;5050630;28;20479;-41
2022/06/21 06:14:46;;;;;;;6.20;4.20;;;;;;;;;;5050511;28;20049;-41
2022/06/21 06:17:32;;;;;;;6.00;4.55;;;;;;;;;;5049479;28;20110;-41
2022/06/21 06:20:01;;;;;;;9.00;4.97;;;;;;;;;;5050898;28;20060;-41
2022/06/21 06:22:36;;;;;;;5.13;4.68;;;;;;;;;;5050614;28;20021;-41
2022/06/21 06:25:10;;;;;;;12.10;4.35;;;;;;;;;;5051001;28;20387;-41
2022/06/21 06:27:45;;;;;;;4.78;3.85;;;;;;;;;;5050334;28;20171;-41
2022/06/21 06:30:13;;;;;;;4.97;3.88;;;;;;;;;;5052456;28;20040;-41
2022/06/21 06:32:42;;;;;;;9.10;4.15;;;;;;;;;;5054009;28;20112;-41
2022/06/21 06:35:19;;;;;;;4.35;3.95;;;;;;;;;;5054005;28;20040;-40
2022/06/21 06:37:46;;;;;;;6.63;4.20;;;;;;;;;;5054406;28;20360;-41
2022/06/21 06:40:18;;;;;;;5.68;4.13;;;;;;;;;;5054036;28;20709;-41
2022/06/21 06:42:44;;;;;;;5.57;3.70;;;;;;;;;;5052748;28;20040;-41
2022/06/21 06:45:15;;;;;;;5.47;3.63;;;;;;;;;;5054044;28;20029;-41
2022/06/21 06:47:44;;;;;;;7.50;4.10;;;;;;;;;;5053838;28;20086;-41
2022/06/21 06:50:09;;;;;;;6.28;4.20;;;;;;;;;;5054201;28;20410;-41
2022/06/21 06:52:41;;;;;;;5.63;3.47;;;;;;;;;;5053901;28;20044;-40
2022/06/21 06:55:25;;;;;;;10.30;3.70;;;;;;;;;;5054038;28;20122;-41
2022/06/21 06:57:53;;;;;;;6.97;3.95;;;;;;;;;;5053992;28;20042;-41
2022/06/21 07:00:21;;;;;;;4.07;3.42;;;;;;;;;;5052317;28;20110;-41
2022/06/21 07:02:49;;;;;;;3.30;2.95;;;;;;;;;;5053634;28;20680;-41
2022/06/21 07:05:24;;;;;;;7.78;3.63;;;;;;;;;;5053494;28;20016;-41
2022/06/21 07:07:52;;;;;;;3.60;3.15;;;;;;;;;;5053780;28;20354;-41
2022/06/21 07:10:19;;;;;;;6.10;3.00;;;;;;;;;;5053450;28;20506;-41
2022/06/21 07:12:46;;;;;;;5.15;3.22;;;;;;;;;;5053826;28;20024;-41
2022/06/21 07:15:12;;;;;;;7.25;3.85;;;;;;;;;;5053193;28;20044;-41
2022/06/21 07:17:40;;;;;;;6.65;3.13;;;;;;;;;;5053338;28;20047;-41
2022/06/21 07:20:13;;;;;;;5.70;3.65;;;;;;;;;;5053381;28;20474;-40
2022/06/21 07:22:39;;;;;;;4.65;2.70;;;;;;;;;;5053133;28;20036;-40
2022/06/21 07:25:11;;;;;;;5.68;2.55;;;;;;;;;;5053256;28;20017;-41
2022/06/21 07:27:38;;;;;;;5.82;2.35;;;;;;;;;;5053393;28;20040;-41
2022/06/21 07:30:07;;;;;;;3.08;2.38;;;;;;;;;;5053179;28;20371;-41
2022/06/21 07:32:39;;;;;;;2.90;2.60;;;;;;;;;;5052944;28;20557;-41
2022/06/21 07:35:08;;;;;;;2.85;2.35;;;;;;;;;;5053392;28;20550;-41
2022/06/21 07:37:36;;;;;;;2.90;2.50;;;;;;;;;;5052811;28;20028;-41
2022/06/21 07:40:04;;;;;;;4.78;2.58;;;;;;;;;;5052781;28;20108;-41
2022/06/21 07:42:33;;;;;;;3.00;2.70;;;;;;;;;;5052907;28;20074;-41
2022/06/21 07:45:01;;;;;;;5.28;2.22;;;;;;;;;;5053119;28;20091;-41
2022/06/21 07:47:27;;;;;;;3.70;2.17;;;;;;;;;;5051473;28;20112;-41
2022/06/21 07:50:02;;;;;;;5.32;2.50;;;;;;;;;;5052742;28;20104;-41
2022/06/21 07:52:30;;;;;;;4.55;2.65;;;;;;;;;;5051391;28;20064;-41
2022/06/21 07:55:00;;;;;;;2.70;2.30;;;;;;;;;;5052673;28;20016;-41
2022/06/21 07:57:32;;;;;;;4.88;2.30;;;;;;;;;;5052814;28;20036;-41
2022/06/21 08:00:17;;;;;;;4.35;2.42;;;;;;;;;;5052354;28;20565;-41
2022/06/21 08:08:41;;;;;;;8.32;2.90;;;;;;;;;;5052350;28;20039;-41
2022/06/21 08:11:15;;;;;;;3.05;2.58;;;;;;;;;;5052636;28;20376;-41
2022/06/21 08:13:41;;;;;;;7.95;2.83;;;;;;;;;;5052307;28;20257;-41
2022/06/21 08:16:18;;;;;;;9.30;2.30;;;;;;;;;;5052097;28;20045;-41
2022/06/21 08:18:59;;;;;;;5.95;2.35;;;;;;;;;;5052403;28;20037;-41
2022/06/21 08:21:28;;;;;;;3.40;2.28;;;;;;;;;;5052240;28;20037;-41
2022/06/21 08:23:59;;;;;;;2.05;1.90;;;;;;;;;;5052162;28;20694;-41
2022/06/21 08:26:36;;;;;;;2.65;2.25;;;;;;;;;;5051947;28;20025;-41
2022/06/21 08:29:04;;;;;;;5.68;2.70;;;;;;;;;;5052341;28;20383;-41
2022/06/21 08:31:35;;;;;;;5.45;2.60;;;;;;;;;;5052192;28;20375;-41
2022/06/21 08:34:10;;;;;;;8.32;2.65;;;;;;;;;;5051970;28;20021;-41
2022/06/21 08:36:43;;;;;;;3.03;2.33;;;;;;;;;;5051766;28;20032;-41
2022/06/21 08:39:18;;;;;;;4.72;2.05;;;;;;;;;;5052189;28;20036;-41
2022/06/21 08:41:53;;;;;;;6.72;2.83;;;;;;;;;;5051859;28;20411;-41
2022/06/21 08:44:21;;;;;;;3.35;2.70;;;;;;;;;;5051845;28;20495;-41
2022/06/21 08:46:59;;;;;;;3.67;2.47;;;;;;;;;;5051692;28;20028;-41
2022/06/21 08:49:36;;;;;;;3.15;2.65;;;;;;;;;;5051906;28;20467;-41
2022/06/21 08:52:01;;;;;;;5.03;3.22;;;;;;;;;;5051040;28;20068;-41
2022/06/21 08:54:54;;;;;;;2.30;1.95;;;;;;;;;;5051890;28;20025;-41
2022/06/21 08:57:19;;;;;;;3.53;2.93;;;;;;;;;;5051375;28;20095;-41
2022/06/21 09:00:00;;;;;;;4.93;2.50;;;;;;;;;;5051708;28;20056;-41
2022/06/21 09:02:25;;;;;;;3.40;2.88;;;;;;;;;;5051394;28;20040;-41
2022/06/21 09:04:51;;;;;;;4.22;2.65;;;;;;;;;;5051745;28;20025;-42
2022/06/21 09:07:25;;;;;;;5.70;3.28;;;;;;;;;;5051598;28;20037;-41
2022/06/21 09:09:53;;;;;;;3.80;2.22;;;;;;;;;;5051408;28;20029;-41
2022/06/21 09:12:19;;;;;;;2.60;2.30;;;;;;;;;;5051265;28;20440;-41
2022/06/21 09:14:44;;;;;;;5.13;2.53;;;;;;;;;;5051190;28;20080;-41
2022/06/21 09:17:29;;;;;;;6.43;3.15;;;;;;;;;;5051391;28;20098;-41
2022/06/21 09:20:06;;;;;;;4.68;2.45;;;;;;;;;;5051237;28;20575;-41
2022/06/21 09:22:53;;;;;;;4.10;2.83;;;;;;;;;;5050159;28;20035;-41
2022/06/21 09:25:18;;;;;;;4.63;2.60;;;;;;;;;;5049679;28;20033;-41
2022/06/21 09:27:48;;;;;;;4.30;2.33;;;;;;;;;;5051088;28;20096;-41
2022/06/21 09:30:23;;;;;;;3.75;2.85;;;;;;;;;;5051224;28;20041;-41
2022/06/21 09:32:58;;;;;;;3.17;2.67;;;;;;;;;;5049859;28;20025;-41
2022/06/21 09:35:42;;;;;;;6.13;2.83;;;;;;;;;;5051275;28;20545;-41
2022/06/21 09:38:15;;;;;;;3.72;2.85;;;;;;;;;;5051174;28;20033;-41
2022/06/21 09:40:47;;;;;;;3.30;2.60;;;;;;;;;;5050836;28;20106;-41
2022/06/21 09:43:24;;;;;;;5.30;3.13;;;;;;;;;;5051074;28;20487;-41
2022/06/21 09:45:58;;;;;;;4.18;2.63;;;;;;;;;;5051000;28;20498;-41
2022/06/21 09:48:29;;;;;;;5.50;2.83;;;;;;;;;;5050988;28;20037;-40
2022/06/21 09:51:00;;;;;;;6.20;3.10;;;;;;;;;;5050950;28;20032;-40
2022/06/21 09:53:35;;;;;;;2.95;2.42;;;;;;;;;;5050900;28;20021;-41
2022/06/21 09:56:07;;;;;;;3.80;3.10;;;;;;;;;;5051172;28;20090;-41
2022/06/21 09:58:53;;;;;;;3.40;3.00;;;;;;;;;;5049606;28;20479;-42
2022/06/21 10:01:34;;;;;;;7.72;3.25;;;;;;;;;;5049398;28;20064;-41
2022/06/21 10:04:06;;;;;;;2.53;2.33;;;;;;;;;;5051166;28;20041;-41
2022/06/21 10:06:40;;;;;;;3.08;2.72;;;;;;;;;;5054534;28;20036;-41
2022/06/21 10:09:06;;;;;;;5.25;2.75;;;;;;;;;;5054648;28;20127;-41
2022/06/21 10:11:40;;;;;;;3.75;3.08;;;;;;;;;;5054616;28;20092;-41
2022/06/21 10:14:20;;;;;;;3.83;2.83;;;;;;;;;;5054559;28;20021;-42
2022/06/21 10:16:58;;;;;;;3.83;2.80;;;;;;;;;;5054494;28;20044;-41
2022/06/21 10:19:42;;;;;;;7.82;3.00;;;;;;;;;;5054354;28;20036;-42
2022/06/21 10:22:18;;;;;;;2.97;2.60;;;;;;;;;;5054396;28;20041;-41
2022/06/21 10:25:02;;;;;;;3.08;2.60;;;;;;;;;;5054314;28;20029;-41
2022/06/21 10:27:47;;;;;;;9.00;2.92;;;;;;;;;;5054459;28;20530;-42
2022/06/21 10:30:31;;;;;;;5.45;2.92;;;;;;;;;;5054601;28;20029;-41
2022/06/21 10:32:59;;;;;;;4.50;3.20;;;;;;;;;;5054546;28;20035;-41
2022/06/21 10:35:43;;;;;;;4.35;2.42;;;;;;;;;;5054026;28;20529;-41
2022/06/21 10:38:09;;;;;;;3.00;2.55;;;;;;;;;;5054459;28;20039;-41
2022/06/21 10:40:53;;;;;;;2.80;2.60;;;;;;;;;;5052688;28;20398;-41
2022/06/21 10:43:21;;;;;;;3.90;2.65;;;;;;;;;;5054084;28;20111;-41
2022/06/21 10:45:53;;;;;;;4.43;2.70;;;;;;;;;;5053768;28;20033;-40
2022/06/21 10:48:44;;;;;;;7.45;2.92;;;;;;;;;;5054296;28;20112;-41
2022/06/21 10:51:10;;;;;;;5.78;3.30;;;;;;;;;;5054340;28;20070;-41
2022/06/21 10:53:44;;;;;;;5.10;3.45;;;;;;;;;;5053879;28;20025;-41
2022/06/21 10:59:00;;;;;;;6.57;3.08;;;;;;;;;;5054027;28;20039;-41
2022/06/21 11:01:25;;;;;;;5.22;3.10;;;;;;;;;;5053421;28;20108;-41
2022/06/21 11:04:01;;;;;;;4.03;2.72;;;;;;;;;;5053671;28;20033;-41
2022/06/21 11:06:44;;;;;;;11.65;3.10;;;;;;;;;;5053539;28;20384;-41
2022/06/21 11:09:20;;;;;;;5.50;2.45;;;;;;;;;;5052294;28;20035;-41
2022/06/21 11:11:46;;;;;;;4.50;3.05;;;;;;;;;;5053682;28;20036;-41
2022/06/21 11:14:27;;;;;;;7.70;2.67;;;;;;;;;;5053241;28;20077;-41
2022/06/21 11:17:12;;;;;;;4.93;3.08;;;;;;;;;;5051620;28;20403;-41
2022/06/21 11:19:51;;;;;;;5.97;3.47;;;;;;;;;;5053654;28;20035;-41
2022/06/21 11:22:32;;;;;;;8.38;2.83;;;;;;;;;;5053328;28;20495;-41
2022/06/21 11:24:57;;;;;;;6.07;2.88;;;;;;;;;;5053236;28;20029;-41
2022/06/21 11:27:29;;;;;;;4.55;3.30;;;;;;;;;;5053133;28;20460;-41
2022/06/21 11:29:58;;;;;;;4.85;2.78;;;;;;;;;;5053225;28;20387;-41
2022/06/21 11:32:28;;;;;;;4.30;2.90;;;;;;;;;;5052927;28;20013;-41
2022/06/21 11:34:56;;;;;;;3.97;3.00;;;;;;;;;;5053072;28;20108;-41
2022/06/21 11:37:25;;;;;;;4.05;3.05;;;;;;;;;;5053098;28;20020;-41
2022/06/21 11:40:08;;;;;;;5.10;3.17;;;;;;;;;;5053140;28;20429;-41
2022/06/21 11:42:38;;;;;;;4.22;2.85;;;;;;;;;;5052857;28;20021;-41
2022/06/21 11:45:07;;;;;;;3.45;3.15;;;;;;;;;;5052889;28;20065;-41
2022/06/21 11:47:45;;;;;;;4.05;3.22;;;;;;;;;;5052792;28;20483;-41
2022/06/21 11:50:24;;;;;;;5.00;3.53;;;;;;;;;;5052907;28;20501;-40
2022/06/21 11:53:09;;;;;;;6.78;3.40;;;;;;;;;;5052674;28;20029;-41
2022/06/21 11:55:56;;;;;;;4.72;3.67;;;;;;;;;;5052590;28;20651;-41
2022/06/21 11:58:25;;;;;;;6.50;3.67;;;;;;;;;;5053304;28;20041;-41
2022/06/21 12:00:57;;;;;;;8.77;3.58;;;;;;;;;;5052519;28;20042;-41
2022/06/21 12:03:55;;;;;;;5.83;2.73;;;;;;;;;;5052649;28;20036;-41
2022/06/21 12:06:30;;;;;;;4.35;2.92;;;;;;;;;;5051086;28;20049;-41
2022/06/21 12:08:59;;;;;;;10.10;3.40;;;;;;;;;;5052534;28;20090;-41
2022/06/21 12:11:33;;;;;;;5.80;3.38;;;;;;;;;;5052286;28;20447;-41
2022/06/21 12:14:24;;;;;;;4.97;3.33;;;;;;;;;;5052474;28;20425;-42
2022/06/21 12:17:00;;;;;;;5.15;3.28;;;;;;;;;;5052332;28;20050;-41
2022/06/21 12:19:30;;;;;;;5.35;3.88;;;;;;;;;;5052162;28;20421;-41
2022/06/21 12:22:06;;;;;;;5.22;3.28;;;;;;;;;;5052387;28;20033;-41
2022/06/21 12:24:34;;;;;;;7.32;2.53;;;;;;;;;;5052014;28;20044;-41
2022/06/21 12:27:00;;;;;;;7.50;3.55;;;;;;;;;;5050015;28;20064;-41
2022/06/21 12:29:28;;;;;;;4.47;3.75;;;;;;;;;;5051923;28;20036;-41
2022/06/21 12:31:58;;;;;;;8.13;3.40;;;;;;;;;;5052312;28;20431;-41
2022/06/21 12:34:23;;;;;;;3.42;3.13;;;;;;;;;;5051941;28;20036;-41
2022/06/21 12:36:59;;;;;;;6.90;3.35;;;;;;;;;;5051838;28;20013;-42
2022/06/21 12:39:29;;;;;;;4.05;3.65;;;;;;;;;;5051815;28;20056;-41
2022/06/21 12:42:00;;;;;;;8.80;4.05;;;;;;;;;;5052077;28;20036;-41
2022/06/21 12:44:26;;;;;;;8.18;3.55;;;;;;;;;;5051696;28;20620;-41
2022/06/21 12:47:02;;;;;;;5.28;3.60;;;;;;;;;;5050376;28;20045;-41
2022/06/21 12:49:31;;;;;;;12.50;3.72;;;;;;;;;;5051807;28;20044;-41
2022/06/21 12:51:59;;;;;;;7.85;4.97;;;;;;;;;;5051671;28;20017;-41
2022/06/21 12:54:37;;;;;;;4.10;3.72;;;;;;;;;;5051611;28;20463;-41
2022/06/21 12:57:06;;;;;;;5.30;3.90;;;;;;;;;;5051513;28;20471;-41
2022/06/21 12:59:41;;;;;;;3.72;3.30;;;;;;;;;;5051556;28;20048;-41
2022/06/21 13:02:25;;;;;;;6.63;3.15;;;;;;;;;;5051341;28;20088;-41
2022/06/21 13:05:02;;;;;;;7.28;3.75;;;;;;;;;;5051456;28;20443;-41
2022/06/21 13:07:37;;;;;;;7.32;3.75;;;;;;;;;;5051433;28;20029;-42
2022/06/21 13:10:12;;;;;;;6.28;3.80;;;;;;;;;;5051379;28;20025;-41
2022/06/21 13:12:44;;;;;;;7.15;4.15;;;;;;;;;;5051238;28;20120;-41
2022/06/21 13:15:19;;;;;;;7.95;3.85;;;;;;;;;;5051148;28;20043;-41
2022/06/21 13:17:56;;;;;;;17.58;3.50;;;;;;;;;;5051278;28;20032;-41
2022/06/21 13:20:22;;;;;;;5.68;3.65;;;;;;;;;;5051136;28;20036;-41
2022/06/21 13:23:01;;;;;;;7.55;3.15;;;;;;;;;;5051237;28;20379;-41
2022/06/21 13:25:30;;;;;;;6.45;3.38;;;;;;;;;;5051362;28;20029;-41
2022/06/21 13:28:04;;;;;;;7.90;3.88;;;;;;;;;;5051218;28;20044;-41
2022/06/21 13:30:42;;;;;;;4.85;3.47;;;;;;;;;;5051359;28;20328;-41
2022/06/21 13:33:11;;;;;;;4.93;3.67;;;;;;;;;;5051175;28;20033;-41
2022/06/21 13:35:45;;;;;;;6.93;3.95;;;;;;;;;;5051254;28;20029;-42
2022/06/21 13:38:18;;;;;;;9.60;4.30;;;;;;;;;;5051552;28;20064;-41
2022/06/21 13:40:43;;;;;;;;;;;;;;;;;;5055525;28;20044;-41
2022/06/21 13:43:12;;;;;;;5.55;3.92;;;;;;;;;;5055474;28;19912;-41
2022/06/21 13:45:41;;;;;;;7.00;3.50;;;;;;;;;;5055314;28;20123;-41
2022/06/21 13:48:13;;;;;;;5.63;3.60;;;;;;;;;;5055107;28;20012;-41
2022/06/21 13:50:45;;;;;;;7.38;4.05;;;;;;;;;;5054923;28;20458;-41
2022/06/21 13:53:16;;;;;;;8.13;3.97;;;;;;;;;;5055123;28;20635;-41
2022/06/21 13:55:45;;;;;;;4.25;3.50;;;;;;;;;;5055096;28;20041;-41
2022/06/21 13:58:20;;;;;;;5.93;3.75;;;;;;;;;;5053713;28;20135;-41
2022/06/21 14:01:09;;;;;;;5.40;4.05;;;;;;;;;;5054812;28;20048;-41
2022/06/21 14:03:37;;;;;;;9.35;4.15;;;;;;;;;;5054242;28;20037;-41
2022/06/21 14:06:10;;;;;;;10.38;4.20;;;;;;;;;;5054712;28;20017;-41
2022/06/21 14:08:45;;;;;;;35.38;4.68;;;;;;;;;;5054923;28;20044;-41
2022/06/21 14:11:19;;;;;;;7.72;4.30;;;;;;;;;;5054684;28;20025;-41
2022/06/21 14:13:50;;;;;;;5.20;4.10;;;;;;;;;;5054560;28;20530;-42
2022/06/21 14:16:27;;;;;;;5.05;4.13;;;;;;;;;;5054424;28;20075;-41
2022/06/21 14:19:11;;;;;;;4.35;3.45;;;;;;;;;;5054589;28;20041;-45
2022/06/21 14:21:39;;;;;;;5.70;3.92;;;;;;;;;;5054383;28;20487;-42
2022/06/21 14:24:19;;;;;;;6.25;3.67;;;;;;;;;;5054493;28;20021;-42
2022/06/21 14:26:50;;;;;;;8.68;4.18;;;;;;;;;;5054285;28;20032;-41
2022/06/21 14:29:47;;;;;;;5.60;4.07;;;;;;;;;;5054505;28;20025;-42
2022/06/21 14:32:28;;;;;;;5.13;3.65;;;;;;;;;;5052995;28;20099;-41
2022/06/21 14:35:17;;;;;;;5.00;4.07;;;;;;;;;;5054552;28;20174;-41
2022/06/21 14:38:03;;;;;;;9.63;4.22;;;;;;;;;;5054040;28;20021;-41
2022/06/21 14:40:32;;;;;;;4.50;3.40;;;;;;;;;;5053948;28;20064;-41
2022/06/21 14:43:05;;;;;;;7.00;4.45;;;;;;;;;;5054080;28;20021;-41
2022/06/21 14:45:38;;;;;;;7.72;4.25;;;;;;;;;;5054208;28;20033;-41
2022/06/21 14:48:22;;;;;;;5.25;3.60;;;;;;;;;;5054064;28;20545;-41
2022/06/21 14:51:01;;;;;;;6.32;3.28;;;;;;;;;;5053075;28;20029;-42
2022/06/21 14:53:33;;;;;;;5.53;3.85;;;;;;;;;;5053739;28;20131;-41
2022/06/21 14:56:09;;;;;;;6.13;3.25;;;;;;;;;;5053828;28;20033;-42
2022/06/21 14:58:34;;;;;;;10.10;3.70;;;;;;;;;;5053682;28;20490;-42
2022/06/21 15:01:15;;;;;;;3.60;3.30;;;;;;;;;;5053633;28;20033;-41
2022/06/21 15:03:55;;;;;;;3.88;2.88;;;;;;;;;;5053628;28;20029;-41
2022/06/21 15:06:24;;;;;;;4.70;3.17;;;;;;;;;;5053873;28;20466;-41
2022/06/21 15:08:52;;;;;;;3.15;2.75;;;;;;;;;;5053847;28;20063;-41
2022/06/21 15:14:35;;;;;;;3.17;2.92;;;;;;;;;;5053250;28;20045;-42
2022/06/21 15:17:04;;;;;;;8.48;3.28;;;;;;;;;;5053819;28;20075;-41
2022/06/21 15:19:55;;;;;;;28.05;4.60;;;;;;;;;;5053261;28;20091;-41
2022/06/21 15:22:26;;;;;;;8.38;3.00;;;;;;;;;;5053332;28;20391;-41
2022/06/21 15:24:58;;;;;;;18.58;4.45;;;;;;;;;;5053279;28;20079;-41
2022/06/21 15:27:27;;;;;;;4.45;3.08;;;;;;;;;;5053231;28;20055;-41